sensor_id;sensor_type;location;lat;lon;timestamp;P1;durP1;ratioP1;P2;durP2;ratioP2
16900;SDS011;8567;52.540;6.434;2022-07-21T00:01:04;6.30;;;6.00;;
16900;SDS011;8567;52.540;6.434;2022-07-21T00:03:31;6.35;;;6.05;;
16900;SDS011;8567;52.540;6.434;2022-07-21T00:05:58;6.45;;;6.05;;
16900;SDS011;8567;52.540;6.434;2022-07-21T00:08:27;6.85;;;6.45;;
16900;SDS011;8567;52.540;6.434;2022-07-21T00:10:54;6.97;;;6.57;;
16900;SDS011;8567;52.540;6.434;2022-07-21T00:13:20;7.47;;;7.07;;
16900;SDS011;8567;52.540;6.434;2022-07-21T00:15:48;7.03;;;6.63;;
16900;SDS011;8567;52.540;6.434;2022-07-21T00:18:15;7.30;;;6.90;;
16900;SDS011;8567;52.540;6.434;2022-07-21T00:20:42;7.05;;;6.65;;
16900;SDS011;8567;52.540;6.434;2022-07-21T00:23:09;7.13;;;6.72;;
16900;SDS011;8567;52.540;6.434;2022-07-21T00:25:38;7.30;;;6.80;;
16900;SDS011;8567;52.540;6.434;2022-07-21T00:28:05;6.60;;;6.25;;
16900;SDS011;8567;52.540;6.434;2022-07-21T00:30:32;7.30;;;6.88;;
16900;SDS011;8567;52.540;6.434;2022-07-21T00:32:59;7.15;;;6.75;;
16900;SDS011;8567;52.540;6.434;2022-07-21T00:35:25;7.07;;;6.60;;
16900;SDS011;8567;52.540;6.434;2022-07-21T00:37:53;7.28;;;6.88;;
16900;SDS011;8567;52.540;6.434;2022-07-21T00:40:19;7.45;;;7.05;;
16900;SDS011;8567;52.540;6.434;2022-07-21T00:42:47;8.02;;;7.53;;
16900;SDS011;8567;52.540;6.434;2022-07-21T00:45:14;7.63;;;7.22;;
16900;SDS011;8567;52.540;6.434;2022-07-21T00:47:41;8.30;;;7.80;;
16900;SDS011;8567;52.540;6.434;2022-07-21T00:50:09;7.90;;;7.50;;
16900;SDS011;8567;52.540;6.434;2022-07-21T00:52:38;8.40;;;7.90;;
16900;SDS011;8567;52.540;6.434;2022-07-21T00:55:06;8.52;;;8.05;;
16900;SDS011;8567;52.540;6.434;2022-07-21T00:57:35;7.85;;;7.35;;
16900;SDS011;8567;52.540;6.434;2022-07-21T01:00:04;8.10;;;7.65;;
16900;SDS011;8567;52.540;6.434;2022-07-21T01:02:33;7.78;;;7.38;;
16900;SDS011;8567;52.540;6.434;2022-07-21T01:05:01;7.88;;;7.47;;
16900;SDS011;8567;52.540;6.434;2022-07-21T01:07:29;8.88;;;8.38;;
16900;SDS011;8567;52.540;6.434;2022-07-21T01:09:55;8.75;;;8.25;;
16900;SDS011;8567;52.540;6.434;2022-07-21T01:12:23;8.23;;;7.72;;
16900;SDS011;8567;52.540;6.434;2022-07-21T01:14:49;8.05;;;7.55;;
16900;SDS011;8567;52.540;6.434;2022-07-21T01:17:18;8.18;;;7.68;;
16900;SDS011;8567;52.540;6.434;2022-07-21T01:19:45;7.65;;;7.25;;
16900;SDS011;8567;52.540;6.434;2022-07-21T01:22:14;8.50;;;8.00;;
16900;SDS011;8567;52.540;6.434;2022-07-21T01:24:41;9.38;;;8.77;;
16900;SDS011;8567;52.540;6.434;2022-07-21T01:27:08;8.70;;;8.20;;
16900;SDS011;8567;52.540;6.434;2022-07-21T01:29:35;8.63;;;8.13;;
16900;SDS011;8567;52.540;6.434;2022-07-21T01:32:02;8.30;;;7.82;;
16900;SDS011;8567;52.540;6.434;2022-07-21T01:34:29;8.18;;;7.75;;
16900;SDS011;8567;52.540;6.434;2022-07-21T01:36:56;8.68;;;8.18;;
16900;SDS011;8567;52.540;6.434;2022-07-21T01:39:24;8.35;;;7.95;;
16900;SDS011;8567;52.540;6.434;2022-07-21T01:42:08;8.30;;;7.80;;
16900;SDS011;8567;52.540;6.434;2022-07-21T01:44:35;8.65;;;8.15;;
16900;SDS011;8567;52.540;6.434;2022-07-21T01:47:02;8.63;;;8.23;;
16900;SDS011;8567;52.540;6.434;2022-07-21T01:49:29;9.00;;;8.50;;
16900;SDS011;8567;52.540;6.434;2022-07-21T01:51:56;9.15;;;8.65;;
16900;SDS011;8567;52.540;6.434;2022-07-21T01:54:24;8.45;;;7.95;;
16900;SDS011;8567;52.540;6.434;2022-07-21T01:56:51;8.70;;;8.30;;
16900;SDS011;8567;52.540;6.434;2022-07-21T01:59:18;8.90;;;8.50;;
16900;SDS011;8567;52.540;6.434;2022-07-21T02:01:45;9.02;;;8.52;;
16900;SDS011;8567;52.540;6.434;2022-07-21T02:04:12;9.50;;;8.75;;
16900;SDS011;8567;52.540;6.434;2022-07-21T02:06:39;8.60;;;8.10;;
16900;SDS011;8567;52.540;6.434;2022-07-21T02:09:06;9.13;;;8.63;;
16900;SDS011;8567;52.540;6.434;2022-07-21T02:11:34;9.02;;;8.55;;
16900;SDS011;8567;52.540;6.434;2022-07-21T02:14:01;9.32;;;8.77;;
16900;SDS011;8567;52.540;6.434;2022-07-21T02:16:28;9.43;;;8.93;;
16900;SDS011;8567;52.540;6.434;2022-07-21T02:18:56;9.43;;;8.93;;
16900;SDS011;8567;52.540;6.434;2022-07-21T02:21:23;9.35;;;8.85;;
16900;SDS011;8567;52.540;6.434;2022-07-21T02:23:50;9.77;;;9.27;;
16900;SDS011;8567;52.540;6.434;2022-07-21T02:26:16;9.60;;;9.10;;
16900;SDS011;8567;52.540;6.434;2022-07-21T02:28:45;8.95;;;8.45;;
16900;SDS011;8567;52.540;6.434;2022-07-21T02:31:12;9.10;;;8.60;;
16900;SDS011;8567;52.540;6.434;2022-07-21T02:33:39;9.15;;;8.65;;
16900;SDS011;8567;52.540;6.434;2022-07-21T02:36:06;9.00;;;8.60;;
16900;SDS011;8567;52.540;6.434;2022-07-21T02:38:33;9.38;;;8.88;;
16900;SDS011;8567;52.540;6.434;2022-07-21T02:41:00;9.70;;;9.20;;
16900;SDS011;8567;52.540;6.434;2022-07-21T02:43:27;9.70;;;9.13;;
16900;SDS011;8567;52.540;6.434;2022-07-21T02:45:55;10.23;;;9.73;;
16900;SDS011;8567;52.540;6.434;2022-07-21T02:48:22;9.45;;;8.95;;
16900;SDS011;8567;52.540;6.434;2022-07-21T02:50:49;9.45;;;8.95;;
16900;SDS011;8567;52.540;6.434;2022-07-21T02:53:16;9.93;;;9.43;;
16900;SDS011;8567;52.540;6.434;2022-07-21T02:55:45;9.80;;;9.20;;
16900;SDS011;8567;52.540;6.434;2022-07-21T02:58:13;10.35;;;9.82;;
16900;SDS011;8567;52.540;6.434;2022-07-21T03:00:42;9.55;;;9.05;;
16900;SDS011;8567;52.540;6.434;2022-07-21T03:03:12;9.80;;;9.30;;
16900;SDS011;8567;52.540;6.434;2022-07-21T03:05:39;9.50;;;9.05;;
16900;SDS011;8567;52.540;6.434;2022-07-21T03:08:06;9.70;;;9.20;;
16900;SDS011;8567;52.540;6.434;2022-07-21T03:10:33;9.75;;;9.25;;
16900;SDS011;8567;52.540;6.434;2022-07-21T03:13:01;9.80;;;9.15;;
16900;SDS011;8567;52.540;6.434;2022-07-21T03:15:28;9.20;;;8.70;;
16900;SDS011;8567;52.540;6.434;2022-07-21T03:17:55;9.68;;;9.18;;
16900;SDS011;8567;52.540;6.434;2022-07-21T03:20:24;9.40;;;8.90;;
16900;SDS011;8567;52.540;6.434;2022-07-21T03:22:51;9.48;;;8.98;;
16900;SDS011;8567;52.540;6.434;2022-07-21T03:25:18;9.77;;;9.18;;
16900;SDS011;8567;52.540;6.434;2022-07-21T03:27:45;9.60;;;9.10;;
16900;SDS011;8567;52.540;6.434;2022-07-21T03:30:13;9.85;;;9.35;;
16900;SDS011;8567;52.540;6.434;2022-07-21T03:32:41;10.60;;;10.02;;
16900;SDS011;8567;52.540;6.434;2022-07-21T03:35:09;10.65;;;10.02;;
16900;SDS011;8567;52.540;6.434;2022-07-21T03:37:43;10.07;;;9.57;;
16900;SDS011;8567;52.540;6.434;2022-07-21T03:40:11;10.35;;;9.85;;
16900;SDS011;8567;52.540;6.434;2022-07-21T03:42:39;11.02;;;10.40;;
16900;SDS011;8567;52.540;6.434;2022-07-21T03:45:06;10.45;;;9.95;;
16900;SDS011;8567;52.540;6.434;2022-07-21T03:47:34;10.70;;;10.10;;
16900;SDS011;8567;52.540;6.434;2022-07-21T03:50:01;10.43;;;9.93;;
16900;SDS011;8567;52.540;6.434;2022-07-21T03:52:28;10.65;;;10.05;;
16900;SDS011;8567;52.540;6.434;2022-07-21T03:54:57;10.90;;;10.30;;
16900;SDS011;8567;52.540;6.434;2022-07-21T03:57:34;10.77;;;10.18;;
16900;SDS011;8567;52.540;6.434;2022-07-21T04:00:03;11.38;;;10.70;;
16900;SDS011;8567;52.540;6.434;2022-07-21T04:02:33;10.30;;;9.80;;
16900;SDS011;8567;52.540;6.434;2022-07-21T04:04:59;10.95;;;10.38;;
16900;SDS011;8567;52.540;6.434;2022-07-21T04:07:26;10.57;;;9.98;;
16900;SDS011;8567;52.540;6.434;2022-07-21T04:09:53;10.73;;;10.15;;
16900;SDS011;8567;52.540;6.434;2022-07-21T04:12:25;10.32;;;9.80;;
16900;SDS011;8567;52.540;6.434;2022-07-21T04:14:52;10.48;;;9.98;;
16900;SDS011;8567;52.540;6.434;2022-07-21T04:17:19;11.07;;;10.45;;
16900;SDS011;8567;52.540;6.434;2022-07-21T04:19:46;11.75;;;11.15;;
16900;SDS011;8567;52.540;6.434;2022-07-21T04:22:13;10.38;;;9.88;;
16900;SDS011;8567;52.540;6.434;2022-07-21T04:24:40;11.20;;;10.60;;
16900;SDS011;8567;52.540;6.434;2022-07-21T04:27:06;11.00;;;10.40;;
16900;SDS011;8567;52.540;6.434;2022-07-21T04:29:34;10.23;;;9.65;;
16900;SDS011;8567;52.540;6.434;2022-07-21T04:32:01;10.68;;;10.18;;
16900;SDS011;8567;52.540;6.434;2022-07-21T04:34:28;10.60;;;10.10;;
16900;SDS011;8567;52.540;6.434;2022-07-21T04:36:55;10.25;;;9.75;;
16900;SDS011;8567;52.540;6.434;2022-07-21T04:39:22;11.38;;;10.77;;
16900;SDS011;8567;52.540;6.434;2022-07-21T04:41:49;10.80;;;10.20;;
16900;SDS011;8567;52.540;6.434;2022-07-21T04:44:16;10.23;;;9.73;;
16900;SDS011;8567;52.540;6.434;2022-07-21T04:46:44;10.38;;;9.77;;
16900;SDS011;8567;52.540;6.434;2022-07-21T04:49:11;10.25;;;9.75;;
16900;SDS011;8567;52.540;6.434;2022-07-21T04:51:38;10.57;;;9.98;;
16900;SDS011;8567;52.540;6.434;2022-07-21T04:54:05;9.52;;;9.05;;
16900;SDS011;8567;52.540;6.434;2022-07-21T04:56:31;10.50;;;10.00;;
16900;SDS011;8567;52.540;6.434;2022-07-21T04:58:59;10.38;;;9.77;;
16900;SDS011;8567;52.540;6.434;2022-07-21T05:01:26;9.80;;;9.30;;
16900;SDS011;8567;52.540;6.434;2022-07-21T05:03:54;10.32;;;9.82;;
16900;SDS011;8567;52.540;6.434;2022-07-21T05:06:20;10.07;;;9.48;;
16900;SDS011;8567;52.540;6.434;2022-07-21T05:08:47;10.18;;;9.68;;
16900;SDS011;8567;52.540;6.434;2022-07-21T05:11:14;10.85;;;10.20;;
16900;SDS011;8567;52.540;6.434;2022-07-21T05:13:41;9.98;;;9.48;;
16900;SDS011;8567;52.540;6.434;2022-07-21T05:16:07;10.25;;;9.75;;
16900;SDS011;8567;52.540;6.434;2022-07-21T05:18:34;9.93;;;9.43;;
16900;SDS011;8567;52.540;6.434;2022-07-21T05:21:02;10.18;;;9.68;;
16900;SDS011;8567;52.540;6.434;2022-07-21T05:23:29;10.55;;;10.05;;
16900;SDS011;8567;52.540;6.434;2022-07-21T05:25:56;10.25;;;9.75;;
16900;SDS011;8567;52.540;6.434;2022-07-21T05:28:22;10.05;;;9.55;;
16900;SDS011;8567;52.540;6.434;2022-07-21T05:30:50;10.00;;;9.50;;
16900;SDS011;8567;52.540;6.434;2022-07-21T05:33:16;11.18;;;10.57;;
16900;SDS011;8567;52.540;6.434;2022-07-21T05:35:43;9.48;;;8.98;;
16900;SDS011;8567;52.540;6.434;2022-07-21T05:38:11;10.60;;;10.10;;
16900;SDS011;8567;52.540;6.434;2022-07-21T05:40:38;10.60;;;10.10;;
16900;SDS011;8567;52.540;6.434;2022-07-21T05:43:05;10.82;;;10.23;;
16900;SDS011;8567;52.540;6.434;2022-07-21T05:45:32;10.35;;;9.85;;
16900;SDS011;8567;52.540;6.434;2022-07-21T05:47:59;10.02;;;9.52;;
16900;SDS011;8567;52.540;6.434;2022-07-21T05:50:26;10.95;;;10.45;;
16900;SDS011;8567;52.540;6.434;2022-07-21T05:52:53;10.10;;;9.60;;
16900;SDS011;8567;52.540;6.434;2022-07-21T05:55:21;10.77;;;10.18;;
16900;SDS011;8567;52.540;6.434;2022-07-21T05:57:48;10.60;;;10.10;;
16900;SDS011;8567;52.540;6.434;2022-07-21T06:00:15;10.30;;;9.75;;
16900;SDS011;8567;52.540;6.434;2022-07-21T06:02:42;11.18;;;10.57;;
16900;SDS011;8567;52.540;6.434;2022-07-21T06:05:09;11.55;;;10.95;;
16900;SDS011;8567;52.540;6.434;2022-07-21T06:07:36;11.35;;;10.75;;
16900;SDS011;8567;52.540;6.434;2022-07-21T06:10:04;11.57;;;10.98;;
16900;SDS011;8567;52.540;6.434;2022-07-21T06:12:33;11.30;;;10.75;;
16900;SDS011;8567;52.540;6.434;2022-07-21T06:15:00;10.82;;;10.23;;
16900;SDS011;8567;52.540;6.434;2022-07-21T06:17:26;10.48;;;9.98;;
16900;SDS011;8567;52.540;6.434;2022-07-21T06:19:56;11.75;;;11.15;;
16900;SDS011;8567;52.540;6.434;2022-07-21T06:22:23;11.02;;;10.43;;
16900;SDS011;8567;52.540;6.434;2022-07-21T06:24:50;11.43;;;10.82;;
16900;SDS011;8567;52.540;6.434;2022-07-21T06:27:17;11.00;;;10.48;;
16900;SDS011;8567;52.540;6.434;2022-07-21T06:29:45;11.15;;;10.55;;
16900;SDS011;8567;52.540;6.434;2022-07-21T06:32:12;11.52;;;10.88;;
16900;SDS011;8567;52.540;6.434;2022-07-21T06:34:38;10.77;;;10.18;;
16900;SDS011;8567;52.540;6.434;2022-07-21T06:37:05;11.75;;;11.15;;
16900;SDS011;8567;52.540;6.434;2022-07-21T06:39:32;11.60;;;11.00;;
16900;SDS011;8567;52.540;6.434;2022-07-21T06:41:59;11.38;;;10.73;;
16900;SDS011;8567;52.540;6.434;2022-07-21T06:44:25;11.27;;;10.68;;
16900;SDS011;8567;52.540;6.434;2022-07-21T06:46:53;12.38;;;11.68;;
16900;SDS011;8567;52.540;6.434;2022-07-21T06:49:20;12.73;;;12.13;;
16900;SDS011;8567;52.540;6.434;2022-07-21T06:51:47;12.27;;;11.68;;
16900;SDS011;8567;52.540;6.434;2022-07-21T06:54:14;12.50;;;11.90;;
16900;SDS011;8567;52.540;6.434;2022-07-21T06:56:41;12.00;;;11.30;;
16900;SDS011;8567;52.540;6.434;2022-07-21T06:59:07;12.90;;;12.20;;
16900;SDS011;8567;52.540;6.434;2022-07-21T07:01:34;11.63;;;10.82;;
16900;SDS011;8567;52.540;6.434;2022-07-21T07:04:02;12.15;;;11.55;;
16900;SDS011;8567;52.540;6.434;2022-07-21T07:06:29;13.02;;;12.35;;
16900;SDS011;8567;52.540;6.434;2022-07-21T07:08:57;13.13;;;12.38;;
16900;SDS011;8567;52.540;6.434;2022-07-21T07:11:23;13.30;;;12.60;;
16900;SDS011;8567;52.540;6.434;2022-07-21T07:13:50;14.52;;;13.77;;
16900;SDS011;8567;52.540;6.434;2022-07-21T07:16:17;14.20;;;13.30;;
16900;SDS011;8567;52.540;6.434;2022-07-21T07:18:44;14.00;;;13.20;;
16900;SDS011;8567;52.540;6.434;2022-07-21T07:21:12;13.90;;;13.10;;
16900;SDS011;8567;52.540;6.434;2022-07-21T07:23:39;13.98;;;13.23;;
16900;SDS011;8567;52.540;6.434;2022-07-21T07:26:06;12.90;;;12.20;;
16900;SDS011;8567;52.540;6.434;2022-07-21T07:28:33;13.43;;;12.63;;
16900;SDS011;8567;52.540;6.434;2022-07-21T07:31:00;12.80;;;12.10;;
16900;SDS011;8567;52.540;6.434;2022-07-21T07:33:27;12.88;;;12.18;;
16900;SDS011;8567;52.540;6.434;2022-07-21T07:35:54;11.23;;;10.52;;
16900;SDS011;8567;52.540;6.434;2022-07-21T07:38:23;11.68;;;11.07;;
16900;SDS011;8567;52.540;6.434;2022-07-21T07:40:50;11.18;;;10.57;;
16900;SDS011;8567;52.540;6.434;2022-07-21T07:43:17;10.88;;;10.27;;
16900;SDS011;8567;52.540;6.434;2022-07-21T07:45:44;11.57;;;10.98;;
16900;SDS011;8567;52.540;6.434;2022-07-21T07:48:11;11.00;;;10.30;;
16900;SDS011;8567;52.540;6.434;2022-07-21T07:50:37;10.68;;;10.10;;
16900;SDS011;8567;52.540;6.434;2022-07-21T07:53:04;11.02;;;10.43;;
16900;SDS011;8567;52.540;6.434;2022-07-21T07:55:32;10.43;;;9.82;;
16900;SDS011;8567;52.540;6.434;2022-07-21T07:58:02;10.43;;;9.82;;
16900;SDS011;8567;52.540;6.434;2022-07-21T08:00:29;10.95;;;10.35;;
16900;SDS011;8567;52.540;6.434;2022-07-21T08:02:55;10.88;;;10.27;;
16900;SDS011;8567;52.540;6.434;2022-07-21T08:05:22;10.07;;;9.48;;
16900;SDS011;8567;52.540;6.434;2022-07-21T08:07:49;10.52;;;9.93;;
16900;SDS011;8567;52.540;6.434;2022-07-21T08:10:16;10.20;;;9.60;;
16900;SDS011;8567;52.540;6.434;2022-07-21T08:12:44;9.80;;;9.30;;
16900;SDS011;8567;52.540;6.434;2022-07-21T08:15:10;11.27;;;10.68;;
16900;SDS011;8567;52.540;6.434;2022-07-21T08:17:37;9.93;;;9.32;;
16900;SDS011;8567;52.540;6.434;2022-07-21T08:20:04;10.00;;;9.50;;
16900;SDS011;8567;52.540;6.434;2022-07-21T08:22:32;9.82;;;9.32;;
16900;SDS011;8567;52.540;6.434;2022-07-21T08:24:59;10.45;;;9.85;;
16900;SDS011;8567;52.540;6.434;2022-07-21T08:27:25;10.43;;;9.85;;
16900;SDS011;8567;52.540;6.434;2022-07-21T08:29:54;9.70;;;9.10;;
16900;SDS011;8567;52.540;6.434;2022-07-21T08:32:20;9.75;;;9.15;;
16900;SDS011;8567;52.540;6.434;2022-07-21T08:34:47;12.35;;;10.10;;
16900;SDS011;8567;52.540;6.434;2022-07-21T08:37:14;15.57;;;11.10;;
16900;SDS011;8567;52.540;6.434;2022-07-21T08:39:41;9.77;;;8.98;;
16900;SDS011;8567;52.540;6.434;2022-07-21T08:42:08;11.30;;;10.40;;
16900;SDS011;8567;52.540;6.434;2022-07-21T08:44:36;10.57;;;9.70;;
16900;SDS011;8567;52.540;6.434;2022-07-21T08:47:04;16.02;;;10.95;;
16900;SDS011;8567;52.540;6.434;2022-07-21T08:49:32;15.85;;;10.85;;
16900;SDS011;8567;52.540;6.434;2022-07-21T08:52:00;19.88;;;13.00;;
16900;SDS011;8567;52.540;6.434;2022-07-21T08:54:28;12.95;;;11.52;;
16900;SDS011;8567;52.540;6.434;2022-07-21T08:56:55;12.13;;;10.90;;
16900;SDS011;8567;52.540;6.434;2022-07-21T08:59:21;19.27;;;11.57;;
16900;SDS011;8567;52.540;6.434;2022-07-21T09:01:48;12.40;;;10.30;;
16900;SDS011;8567;52.540;6.434;2022-07-21T09:04:20;10.27;;;9.27;;
16900;SDS011;8567;52.540;6.434;2022-07-21T09:06:48;9.25;;;8.52;;
16900;SDS011;8567;52.540;6.434;2022-07-21T09:09:17;9.43;;;8.45;;
16900;SDS011;8567;52.540;6.434;2022-07-21T09:11:45;9.90;;;8.90;;
16900;SDS011;8567;52.540;6.434;2022-07-21T09:14:12;10.07;;;9.23;;
16900;SDS011;8567;52.540;6.434;2022-07-21T09:16:42;10.07;;;9.38;;
16900;SDS011;8567;52.540;6.434;2022-07-21T09:19:15;11.10;;;10.35;;
16900;SDS011;8567;52.540;6.434;2022-07-21T09:21:45;11.23;;;10.38;;
16900;SDS011;8567;52.540;6.434;2022-07-21T09:24:20;11.52;;;10.73;;
16900;SDS011;8567;52.540;6.434;2022-07-21T09:26:58;11.63;;;10.82;;
16900;SDS011;8567;52.540;6.434;2022-07-21T09:29:33;12.18;;;11.45;;
16900;SDS011;8567;52.540;6.434;2022-07-21T09:32:21;13.13;;;12.23;;
16900;SDS011;8567;52.540;6.434;2022-07-21T09:34:52;13.52;;;12.82;;
16900;SDS011;8567;52.540;6.434;2022-07-21T09:37:22;14.23;;;13.32;;
16900;SDS011;8567;52.540;6.434;2022-07-21T09:39:50;15.20;;;14.20;;
16900;SDS011;8567;52.540;6.434;2022-07-21T09:42:19;15.43;;;14.48;;
16900;SDS011;8567;52.540;6.434;2022-07-21T09:44:48;17.45;;;16.55;;
16900;SDS011;8567;52.540;6.434;2022-07-21T09:47:17;18.63;;;17.63;;
16900;SDS011;8567;52.540;6.434;2022-07-21T09:49:45;19.55;;;18.35;;
16900;SDS011;8567;52.540;6.434;2022-07-21T09:55:03;21.02;;;19.83;;
16900;SDS011;8567;52.540;6.434;2022-07-21T09:57:32;19.55;;;18.50;;
16900;SDS011;8567;52.540;6.434;2022-07-21T10:00:00;21.48;;;20.30;;
16900;SDS011;8567;52.540;6.434;2022-07-21T10:02:29;23.25;;;22.05;;
16900;SDS011;8567;52.540;6.434;2022-07-21T10:04:58;25.27;;;23.98;;
16900;SDS011;8567;52.540;6.434;2022-07-21T10:07:26;27.10;;;25.67;;
16900;SDS011;8567;52.540;6.434;2022-07-21T10:09:55;26.30;;;24.90;;
16900;SDS011;8567;52.540;6.434;2022-07-21T10:12:22;27.40;;;25.90;;
16900;SDS011;8567;52.540;6.434;2022-07-21T10:14:50;26.95;;;25.50;;
16900;SDS011;8567;52.540;6.434;2022-07-21T10:17:18;27.58;;;26.10;;
16900;SDS011;8567;52.540;6.434;2022-07-21T10:19:49;25.90;;;24.55;;
16900;SDS011;8567;52.540;6.434;2022-07-21T10:22:25;28.55;;;26.90;;
16900;SDS011;8567;52.540;6.434;2022-07-21T10:25:02;28.00;;;26.50;;
16900;SDS011;8567;52.540;6.434;2022-07-21T10:27:30;26.90;;;25.48;;
16900;SDS011;8567;52.540;6.434;2022-07-21T10:29:57;26.98;;;25.48;;
16900;SDS011;8567;52.540;6.434;2022-07-21T10:32:27;28.50;;;27.00;;
16900;SDS011;8567;52.540;6.434;2022-07-21T10:34:56;26.75;;;25.35;;
16900;SDS011;8567;52.540;6.434;2022-07-21T10:48:58;26.13;;;24.58;;
16900;SDS011;8567;52.540;6.434;2022-07-21T10:51:25;26.35;;;24.80;;
16900;SDS011;8567;52.540;6.434;2022-07-21T10:56:49;28.77;;;27.05;;
16900;SDS011;8567;52.540;6.434;2022-07-21T11:02:44;25.58;;;24.23;;
16900;SDS011;8567;52.540;6.434;2022-07-21T11:05:13;26.58;;;25.17;;
16900;SDS011;8567;52.540;6.434;2022-07-21T11:10:40;27.05;;;25.55;;
16900;SDS011;8567;52.540;6.434;2022-07-21T11:13:11;25.60;;;24.30;;
16900;SDS011;8567;52.540;6.434;2022-07-21T11:15:42;24.30;;;23.00;;
16900;SDS011;8567;52.540;6.434;2022-07-21T11:18:11;32.47;;;30.67;;
16900;SDS011;8567;52.540;6.434;2022-07-21T11:20:43;25.13;;;23.42;;
16900;SDS011;8567;52.540;6.434;2022-07-21T11:23:30;23.92;;;22.48;;
16900;SDS011;8567;52.540;6.434;2022-07-21T11:26:01;25.88;;;24.27;;
16900;SDS011;8567;52.540;6.434;2022-07-21T11:28:29;25.77;;;24.38;;
16900;SDS011;8567;52.540;6.434;2022-07-21T11:31:05;29.00;;;27.45;;
16900;SDS011;8567;52.540;6.434;2022-07-21T11:33:33;27.83;;;26.30;;
16900;SDS011;8567;52.540;6.434;2022-07-21T11:36:01;27.92;;;26.33;;
16900;SDS011;8567;52.540;6.434;2022-07-21T11:38:28;28.05;;;26.55;;
16900;SDS011;8567;52.540;6.434;2022-07-21T11:43:40;29.17;;;27.52;;
16900;SDS011;8567;52.540;6.434;2022-07-21T11:46:08;27.92;;;26.45;;
16900;SDS011;8567;52.540;6.434;2022-07-21T11:48:35;28.05;;;26.52;;
16900;SDS011;8567;52.540;6.434;2022-07-21T11:51:02;28.70;;;27.10;;
16900;SDS011;8567;52.540;6.434;2022-07-21T11:53:30;27.85;;;26.25;;
16900;SDS011;8567;52.540;6.434;2022-07-21T11:55:57;29.02;;;27.23;;
16900;SDS011;8567;52.540;6.434;2022-07-21T11:58:24;26.92;;;25.52;;
16900;SDS011;8567;52.540;6.434;2022-07-21T12:01:04;25.92;;;24.55;;
16900;SDS011;8567;52.540;6.434;2022-07-21T12:03:32;25.27;;;23.98;;
16900;SDS011;8567;52.540;6.434;2022-07-21T12:05:59;24.52;;;23.23;;
16900;SDS011;8567;52.540;6.434;2022-07-21T12:08:26;24.25;;;22.95;;
16900;SDS011;8567;52.540;6.434;2022-07-21T12:11:03;23.13;;;21.92;;
16900;SDS011;8567;52.540;6.434;2022-07-21T12:16:24;23.60;;;22.38;;
16900;SDS011;8567;52.540;6.434;2022-07-21T12:21:43;22.58;;;21.42;;
16900;SDS011;8567;52.540;6.434;2022-07-21T12:24:11;19.63;;;18.63;;
16900;SDS011;8567;52.540;6.434;2022-07-21T12:26:38;16.33;;;15.52;;
16900;SDS011;8567;52.540;6.434;2022-07-21T12:29:05;16.08;;;15.27;;
16900;SDS011;8567;52.540;6.434;2022-07-21T12:31:33;11.93;;;11.35;;
16900;SDS011;8567;52.540;6.434;2022-07-21T12:34:10;11.20;;;10.70;;
16900;SDS011;8567;52.540;6.434;2022-07-21T12:36:37;10.00;;;9.50;;
16900;SDS011;8567;52.540;6.434;2022-07-21T12:39:15;9.27;;;8.85;;
16900;SDS011;8567;52.540;6.434;2022-07-21T12:42:05;8.25;;;7.85;;
16900;SDS011;8567;52.540;6.434;2022-07-21T12:44:33;9.15;;;8.75;;
16900;SDS011;8567;52.540;6.434;2022-07-21T12:49:54;7.07;;;6.78;;
16900;SDS011;8567;52.540;6.434;2022-07-21T12:52:25;7.57;;;7.18;;
16900;SDS011;8567;52.540;6.434;2022-07-21T12:54:53;7.88;;;7.47;;
16900;SDS011;8567;52.540;6.434;2022-07-21T12:57:20;7.60;;;7.20;;
16900;SDS011;8567;52.540;6.434;2022-07-21T12:59:46;7.60;;;7.30;;
16900;SDS011;8567;52.540;6.434;2022-07-21T13:02:13;8.00;;;7.60;;
16900;SDS011;8567;52.540;6.434;2022-07-21T13:04:41;8.27;;;7.88;;
16900;SDS011;8567;52.540;6.434;2022-07-21T13:07:08;8.20;;;7.80;;
16900;SDS011;8567;52.540;6.434;2022-07-21T13:09:35;9.23;;;8.82;;
16900;SDS011;8567;52.540;6.434;2022-07-21T13:12:02;9.48;;;9.07;;
16900;SDS011;8567;52.540;6.434;2022-07-21T13:14:30;9.88;;;9.38;;
16900;SDS011;8567;52.540;6.434;2022-07-21T13:16:56;10.32;;;9.82;;
16900;SDS011;8567;52.540;6.434;2022-07-21T13:19:23;10.23;;;9.73;;
16900;SDS011;8567;52.540;6.434;2022-07-21T13:21:54;11.10;;;10.57;;
16900;SDS011;8567;52.540;6.434;2022-07-21T13:24:21;11.45;;;10.93;;
16900;SDS011;8567;52.540;6.434;2022-07-21T13:26:48;11.88;;;11.27;;
16900;SDS011;8567;52.540;6.434;2022-07-21T13:29:15;12.45;;;11.85;;
16900;SDS011;8567;52.540;6.434;2022-07-21T13:31:41;13.90;;;13.25;;
16900;SDS011;8567;52.540;6.434;2022-07-21T13:34:08;15.43;;;14.65;;
16900;SDS011;8567;52.540;6.434;2022-07-21T13:36:35;15.85;;;15.10;;
16900;SDS011;8567;52.540;6.434;2022-07-21T13:39:05;18.40;;;17.45;;
16900;SDS011;8567;52.540;6.434;2022-07-21T13:41:32;19.48;;;18.52;;
16900;SDS011;8567;52.540;6.434;2022-07-21T13:43:59;22.08;;;20.98;;
16900;SDS011;8567;52.540;6.434;2022-07-21T13:46:26;20.52;;;19.50;;
16900;SDS011;8567;52.540;6.434;2022-07-21T13:48:53;21.90;;;20.73;;
16900;SDS011;8567;52.540;6.434;2022-07-21T13:51:20;21.30;;;20.23;;
16900;SDS011;8567;52.540;6.434;2022-07-21T13:53:49;22.33;;;21.20;;
16900;SDS011;8567;52.540;6.434;2022-07-21T13:56:19;20.67;;;19.65;;
16900;SDS011;8567;52.540;6.434;2022-07-21T13:58:46;22.80;;;21.70;;
16900;SDS011;8567;52.540;6.434;2022-07-21T14:01:13;21.88;;;20.80;;
16900;SDS011;8567;52.540;6.434;2022-07-21T14:03:40;22.10;;;21.00;;
16900;SDS011;8567;52.540;6.434;2022-07-21T14:06:08;23.48;;;22.27;;
16900;SDS011;8567;52.540;6.434;2022-07-21T14:08:35;22.95;;;21.83;;
16900;SDS011;8567;52.540;6.434;2022-07-21T14:11:02;23.25;;;22.00;;
16900;SDS011;8567;52.540;6.434;2022-07-21T14:13:30;24.83;;;23.52;;
16900;SDS011;8567;52.540;6.434;2022-07-21T14:15:57;23.30;;;22.15;;
16900;SDS011;8567;52.540;6.434;2022-07-21T14:18:24;22.27;;;21.10;;
16900;SDS011;8567;52.540;6.434;2022-07-21T14:20:51;22.58;;;21.38;;
16900;SDS011;8567;52.540;6.434;2022-07-21T14:23:18;23.63;;;22.42;;
16900;SDS011;8567;52.540;6.434;2022-07-21T14:25:45;18.85;;;17.95;;
16900;SDS011;8567;52.540;6.434;2022-07-21T14:28:13;17.73;;;16.85;;
16900;SDS011;8567;52.540;6.434;2022-07-21T14:30:41;16.08;;;15.32;;
16900;SDS011;8567;52.540;6.434;2022-07-21T14:33:07;16.23;;;15.48;;
16900;SDS011;8567;52.540;6.434;2022-07-21T14:35:35;14.73;;;14.02;;
16900;SDS011;8567;52.540;6.434;2022-07-21T14:38:02;14.25;;;13.55;;
16900;SDS011;8567;52.540;6.434;2022-07-21T14:40:29;13.48;;;12.88;;
16900;SDS011;8567;52.540;6.434;2022-07-21T14:42:56;12.93;;;12.32;;
16900;SDS011;8567;52.540;6.434;2022-07-21T14:45:22;11.93;;;11.43;;
16900;SDS011;8567;52.540;6.434;2022-07-21T14:47:52;12.30;;;11.70;;
16900;SDS011;8567;52.540;6.434;2022-07-21T14:50:20;12.48;;;11.88;;
16900;SDS011;8567;52.540;6.434;2022-07-21T14:52:48;11.73;;;11.23;;
16900;SDS011;8567;52.540;6.434;2022-07-21T14:55:15;11.45;;;10.95;;
16900;SDS011;8567;52.540;6.434;2022-07-21T14:57:42;10.57;;;10.07;;
16900;SDS011;8567;52.540;6.434;2022-07-21T15:00:10;10.30;;;9.80;;
16900;SDS011;8567;52.540;6.434;2022-07-21T15:02:37;9.55;;;9.15;;
16900;SDS011;8567;52.540;6.434;2022-07-21T15:05:06;10.40;;;9.90;;
16900;SDS011;8567;52.540;6.434;2022-07-21T15:07:33;10.50;;;10.00;;
16900;SDS011;8567;52.540;6.434;2022-07-21T15:10:00;9.57;;;9.15;;
16900;SDS011;8567;52.540;6.434;2022-07-21T15:12:27;9.45;;;9.05;;
16900;SDS011;8567;52.540;6.434;2022-07-21T15:14:54;10.10;;;9.60;;
16900;SDS011;8567;52.540;6.434;2022-07-21T15:17:21;9.50;;;9.10;;
16900;SDS011;8567;52.540;6.434;2022-07-21T15:19:48;9.50;;;9.10;;
16900;SDS011;8567;52.540;6.434;2022-07-21T15:22:19;8.82;;;8.43;;
16900;SDS011;8567;52.540;6.434;2022-07-21T15:24:45;8.93;;;8.52;;